Terminal Aerodrome Forecast
Issued by NWS

Home | Current Version | Previous Version | Text Only | Print | Product List | Glossary On
Versions: 1 2 3 4 5 6 7 8 9 10 11 12 13 14 15 16 17 18 19 20 21 22 23 24
736
FTUS43 KGRB 211137
TAFATW
TAF
KATW 211137Z 2112/2212 31011KT P6SM SCT017
      TEMPO 2112/2115 BKN017
     FM211500 35011KT P6SM BKN025
     FM211700 35011KT P6SM FEW030 SCT070
     FM212300 02008KT P6SM SKC=

USA.gov is the U.S. government's official web portal to all federal, state and local government web resources and services.